Latest Coastal Weather Observations for Brisbane Airport

IDQ60701

Issued at 3:21 am EST Sunday 25 June 2017 (issued every 10 minutes, with the page automatically refreshed every 10 minutes)

About coastal observations | Map of coastal stations | Coastal observations for QLD | Marine services | Other Formats
Station Details ID: 040842 Name: BRISBANE AERO Lat: -27.39 Lon: 153.13 Height: 4.51 m
Data from the previous 72 hours. | See also: Recent months at Brisbane Airport
Date/Time
EST
Temp
°C
Wind Pressure Rain since
9am
mm
Weather Cloud Vis
km
Sea
Height
m
Swell
Dir  Spd
kts
Gust
kts
hPa Trend Height
m
Period
s
Dir
25/03:00am 11.9 SSW 6 8 1018.4 R 0.0 Fine Clear 30 - - - -
25/02:30am 11.5 SSW 6 6 1018.4 - 0.0 - - 10 - - - -
25/02:00am 11.7 SW 4 4 1018.3 - 0.0 - Mostly clear 10 - - - -
25/01:30am 12.1 SSW 5 5 1018.5 - 0.0 - Mostly clear 10 - - - -
25/01:00am 12.3 SSW 5 6 1018.8 - 0.0 - - 10 - - - -
25/12:30am 12.6 WSW 4 5 1018.7 - 0.0 - - 10 - - - -
25/12:00am 12.6 SW 4 5 1018.7 R 0.0 Fine Clear 30 - - - -
 
Date/Time
EST
Temp
°C
Wind Pressure Rain since
9am
mm
Weather Cloud Vis
km
Sea
Height
m
Swell
Dir  Spd
kts
Gust
kts
hPa Trend Height
m
Period
s
Dir
24/11:30pm 12.7 SSW 4 5 1018.7 - 0.0 - - 10 - - - -
24/11:00pm 12.8 SSW 5 5 1018.7 - 0.0 - - 10 - - - -
24/10:30pm 13.3 SW 4 4 1018.8 - 0.0 - - 10 - - - -
24/10:00pm 13.3 SW 4 5 1018.8 - 0.0 - - 10 - - - -
24/09:30pm 13.6 SSW 4 5 1018.6 - 0.0 - - 10 - - - -
24/09:00pm 14.1 CALM 0 0 1018.3 R 0.0 Fine Partly cloudy 30 - - - -
24/08:30pm 14.5 W 1 4 1018.3 - 0.0 - - 10 - - - -
24/08:00pm 14.8 W 3 5 1018.3 - 0.0 - - 10 - - - -
24/07:30pm 16.3 E 2 3 1018.0 - 0.0 - - 10 - - - -
24/07:00pm 17.3 E 3 4 1017.6 - 0.0 - - 10 - - - -
24/06:30pm 17.4 E 5 5 1017.3 - 0.0 - - 10 - - - -
24/06:00pm 17.8 ENE 5 6 1016.9 S 0.0 Fine Mostly cloudy 30 - - - -
24/05:30pm 17.7 NE 1 5 1016.4 - 0.0 - - 10 - - - -
24/05:00pm 18.6 NNE 4 5 1016.1 - 0.0 - - 10 - - - -
24/04:30pm 19.8 NE 3 5 1015.9 - 0.0 - - 10 - - - -
24/04:00pm 21.5 NE 5 7 1015.8 - 0.0 - - 10 - - - -
24/03:30pm 21.9 NE 6 8 1015.8 - 0.0 - - 10 - - - -
24/03:00pm 23.4 NE 6 8 1015.6 R 0.0 Fine Partly cloudy 30 - - - -
24/02:30pm 23.1 SSW 7 10 1015.5 - 0.0 - - 10 - - - -
24/02:00pm 23.0 SSW 8 11 1015.7 - 0.0 - - 10 - - - -
24/01:30pm 22.9 SSW 5 7 1015.6 - 0.0 - - 10 - - - -
24/01:00pm 22.7 N 4 7 1015.8 - 0.0 - - 10 - - - -
24/12:30pm 23.0 SW 6 10 1016.1 - 0.0 - - 10 - - - -
24/12:00pm 22.0 WSW 7 10 1016.5 F 0.0 Fine Partly cloudy 30 - - - -
24/11:30am 21.6 WSW 7 10 1017.2 - 0.0 - - 10 - - - -
24/11:00am 20.7 SW 6 10 1017.7 - 0.0 - - 10 - - - -
24/10:30am 19.3 SW 6 9 1018.3 - 0.0 - - 10 - - - -
24/10:00am 17.7 SW 5 7 1018.6 - 0.0 - - 10 - - - -
24/09:30am 15.5 SSW 5 7 1018.7 - 0.0 - - 10 - - - -
24/09:00am 13.9 SSW 5 6 1018.5 R 0.0 Fine Mostly cloudy 30 - - - -
24/08:30am 12.8 SSW 5 6 1018.4 - 0.0 - - 10 - - - -
24/08:00am 11.6 SSW 6 7 1018.2 - 0.0 - - 10 - - - -
24/07:30am 10.4 SSW 5 6 1017.8 - 0.0 - - 10 - - - -
24/07:00am 10.5 SSW 5 6 1017.8 - 0.0 - - 10 - - - -
24/06:30am 9.9 SSW 5 6 1017.5 - 0.0 - - 10 - - - -
24/06:18am 10.5 SSW 5 6 1017.3 - 0.0 - - 10 - - - -
24/06:00am 9.5 CALM 0 0 1017.1 F 0.0 Shallow fog Partly cloudy 30 - - - -
24/05:30am 9.7 CALM 0 0 1016.8 - 0.0 Shallow fog - 10 - - - -
24/05:00am 9.6 CALM 0 0 1016.5 - 0.0 - - 10 - - - -
24/04:30am 10.1 CALM 0 0 1016.4 - 0.0 - - 10 - - - -
24/04:00am 10.0 WSW 5 6 1016.5 - 0.0 - - 10 - - - -
24/03:30am 10.7 W 4 4 1016.6 - 0.0 - - 10 - - - -
24/03:00am 10.5 SW 3 4 1016.8 F 0.0 Fine Clear 30 - - - -
24/02:30am 10.2 NW 3 4 1016.9 - 0.0 - - 10 - - - -
24/02:00am 11.7 CALM 0 0 1017.3 - 0.0 - - 10 - - - -
24/01:30am 12.7 CALM 0 3 1017.5 - 0.0 - - 10 - - - -
24/01:00am 12.2 W 2 6 1017.7 - 0.0 - - 10 - - - -
24/12:30am 12.7 NNW 3 4 1017.6 - 0.0 - - 10 - - - -
24/12:00am 12.5 N 5 7 1017.8 F 0.0 Fine Clear 30 - - - -
 
Date/Time
EST
Temp
°C
Wind Pressure Rain since
9am
mm
Weather Cloud Vis
km
Sea
Height
m
Swell
Dir  Spd
kts
Gust
kts
hPa Trend Height
m
Period
s
Dir
23/11:30pm 13.6 NNW 3 4 1018.5 - 0.0 - - 10 - - - -
23/11:00pm 13.9 NNW 4 5 1018.8 - 0.0 - - 10 - - - -
23/10:30pm 14.0 NNW 1 5 1018.9 - 0.0 - - 10 - - - -
23/10:00pm 14.1 CALM 0 0 1019.1 - 0.0 - - 10 - - - -
23/09:30pm 14.7 NW 3 10 1019.2 - 0.0 - - 10 - - - -
23/09:00pm 14.9 WNW 2 5 1019.4 S 0.0 Fine Clear 30 - - - -
23/08:30pm 14.6 NNW 5 11 1019.4 - 0.0 - - 10 - - - -
23/08:00pm 15.3 WNW 5 6 1019.3 - 0.0 - - 10 - - - -
23/07:30pm 15.4 NNW 5 8 1019.2 - 0.0 - - 10 - - - -
23/07:00pm 16.5 CALM 0 3 1018.8 - 0.0 - - 10 - - - -
23/06:30pm 15.8 NNE 4 5 1018.6 - 0.0 - - 10 - - - -
23/06:00pm 15.8 NE 4 5 1018.6 F 0.0 Fine Partly cloudy 30 - - - -
23/05:30pm 16.8 NNE 4 5 1018.5 - 0.0 - - 10 - - - -
23/05:00pm 16.6 NNE 6 7 1018.3 - 0.0 - - 10 - - - -
23/04:30pm 18.5 NNE 6 7 1018.2 - 0.0 - - 10 - - - -
23/04:00pm 19.8 NNE 7 8 1018.2 - 0.0 - - 10 - - - -
23/03:30pm 20.8 NNE 8 8 1018.3 - 0.0 - - 10 - - - -
23/03:00pm 21.6 NNE 7 9 1018.3 F 0.0 Fine Partly cloudy 30 - - - -
23/02:30pm 22.0 ENE 5 7 1018.6 - 0.0 - Mostly clear 10 - - - -
23/02:00pm 21.9 NE 6 7 1018.8 - 0.0 - Mostly clear 10 - - - -
23/01:30pm 21.8 NNE 7 9 1019.2 - 0.0 - Mostly clear 10 - - - -
23/01:00pm 22.0 NW 3 6 1019.7 - 0.0 - Mostly clear 10 - - - -
23/12:30pm 21.6 SSW 2 6 1020.3 - 0.0 - Mostly clear 10 - - - -
23/12:00pm 20.9 SW 5 9 1020.6 F 0.0 Fine Mostly clear 30 - - - -
23/11:30am 20.7 SW 7 10 1021.5 - 0.0 - Mostly clear 10 - - - -
23/11:00am 20.1 SW 7 9 1022.3 - 0.0 - Mostly clear 10 - - - -
23/10:30am 19.1 SW 9 12 1022.8 - 0.0 - Mostly clear 10 - - - -
23/10:00am 18.2 SW 11 13 1023.0 - 0.0 - - 10 - - - -
23/09:30am 16.8 SW 9 13 1023.3 - 0.0 - - 10 - - - -
23/09:00am 15.2 SW 8 10 1023.1 F 0.2 Fine Mostly clear 30 - - - -
23/08:30am 13.5 SSW 7 9 1022.9 - 0.2 - - 10 - - - -
23/08:00am 12.5 SSW 7 10 1022.9 - 0.2 - - 10 - - - -
23/07:30am 11.2 SSW 7 9 1022.6 - 0.2 - - 10 - - - -
23/07:00am 10.5 SSW 8 9 1022.4 - 0.2 - - 10 - - - -
23/06:30am 9.6 SSW 7 8 1022.3 - 0.2 - - 10 - - - -
23/06:00am 9.6 SSW 7 7 1021.9 F 0.2 Fine Mostly clear 40 - - - -
23/05:30am 9.9 SW 7 8 1021.8 - 0.2 - - 10 - - - -
23/05:00am 11.2 SSW 6 8 1021.5 - 0.2 - - 10 - - - -
23/04:30am 10.8 SSW 8 9 1021.6 - 0.2 - - 10 - - - -
23/04:00am 12.0 SSW 7 9 1021.7 - 0.2 - - 10 - - - -
23/03:30am 11.6 SSW 7 9 1021.9 - 0.2 - - 10 - - - -
23/03:00am 12.1 SSW 7 9 1022.0 F 0.2 Fine Clear 40 - - - -
23/02:30am 11.9 SSW 7 8 1022.2 - 0.2 - - 10 - - - -
23/02:00am 10.9 SSW 6 8 1022.3 - 0.2 - - 10 - - - -
23/01:30am 11.5 SSW 6 7 1022.7 - 0.2 - - 10 - - - -
23/01:00am 11.6 SSW 5 6 1022.9 - 0.2 - - 10 - - - -
23/12:30am 11.4 SW 5 6 1023.0 - 0.2 - - 10 - - - -
23/12:00am 12.0 SSW 5 6 1023.3 F 0.2 Fine Clear 40 - - - -
 
Date/Time
EST
Temp
°C
Wind Pressure Rain since
9am
mm
Weather Cloud Vis
km
Sea
Height
m
Swell
Dir  Spd
kts
Gust
kts
hPa Trend Height
m
Period
s
Dir
22/11:30pm 11.1 S 3 4 1023.6 - 0.2 - - 10 - - - -
22/11:00pm 12.4 SSW 6 6 1023.7 - 0.2 - - 10 - - - -
22/10:30pm 12.5 SSW 6 7 1023.8 - 0.2 - - 10 - - - -
22/10:00pm 13.2 SSW 4 5 1023.9 - 0.2 - - 10 - - - -
22/09:30pm 13.8 SSW 5 7 1023.8 - 0.2 - - 10 - - - -
22/09:00pm 13.3 SSW 5 5 1023.9 F 0.2 Fine Mostly clear 40 - - - -
22/08:30pm 14.3 SSW 5 5 1023.8 - 0.2 - - 10 - - - -
22/08:00pm 14.8 S 4 4 1024.0 - 0.2 - - 10 - - - -
22/07:30pm 15.7 SSE 4 4 1023.9 - 0.2 - - 10 - - - -
22/07:00pm 16.5 SE 3 5 1023.7 - 0.2 - - 10 - - - -
22/06:30pm 17.4 SE 4 5 1023.6 - 0.2 - - 10 - - - -
22/06:00pm 17.8 SE 4 5 1023.3 F 0.2 Fine Mostly clear 30 - - - -
22/05:30pm 18.5 SE 5 7 1023.0 - 0.2 - Mostly clear 10 - - - -
22/05:00pm 19.0 SE 5 8 1022.9 - 0.2 - Mostly clear 10 - - - -
22/04:30pm 19.6 ESE 6 11 1022.7 - 0.2 - Mostly clear 10 - - - -
22/04:00pm 19.9 ESE 7 12 1022.7 - 0.2 - Mostly clear 10 - - - -
22/03:30pm 19.8 ESE 8 14 1022.5 - 0.2 - Mostly clear 10 - - - -
22/03:00pm 20.1 ESE 9 15 1022.4 F 0.2 Fine Partly cloudy 30 - - - -
22/02:30pm 20.2 ESE 9 14 1022.5 - 0.2 - Partly cloudy 10 - - - -
22/02:00pm 20.0 ESE 9 15 1022.6 - 0.2 - Partly cloudy 10 - - - -
22/01:30pm 20.8 ESE 9 15 1022.7 - 0.2 - Partly cloudy 10 - - - -
22/01:00pm 20.6 ESE 8 12 1023.1 - 0.2 - Partly cloudy 10 - - - -
22/12:30pm 21.6 S 7 12 1023.4 - 0.0 - Mostly clear 10 - - - -
22/12:00pm 21.4 S 8 12 1024.0 F 0.0 Fine Mostly clear 30 - - - -
22/11:30am 21.1 S 7 14 1024.4 - 0.0 - Mostly clear 10 - - - -
22/11:00am 20.5 S 9 12 1024.9 - 0.0 - Mostly clear 10 - - - -
22/10:30am 19.2 SSW 8 10 1025.3 - 0.0 - Mostly clear 10 - - - -
22/10:00am 19.3 S 9 13 1025.5 - 0.0 - Mostly clear 10 - - - -
22/09:30am 18.7 SSW 10 14 1025.7 - 0.0 - Mostly clear 10 - - - -
22/09:00am 17.5 SSW 10 16 1025.7 R 0.2 Fine Mostly clear 30 - - - -
22/08:30am 16.5 SSW 11 16 1025.4 - 0.2 - Mostly clear 10 - - - -
22/08:00am 15.6 SSW 12 16 1025.1 - 0.2 - Mostly clear 10 - - - -
22/07:30am 14.7 SSW 8 11 1025.0 - 0.2 - Partly cloudy 10 - - - -
22/07:00am 13.4 SSW 9 11 1024.6 - 0.0 - Partly cloudy 10 - - - -
22/06:30am 13.9 SSW 9 11 1024.3 - 0.0 - - 10 - - - -
22/06:00am 14.1 SSW 7 10 1024.0 R 0.0 Fine Mostly clear 30 - - - -
22/05:30am 13.7 SSW 8 9 1023.6 - 0.0 - Partly cloudy 10 - - - -
22/05:00am 12.8 SSW 8 10 1023.4 - 0.0 - - 10 - - - -
22/04:30am 13.3 SSW 7 9 1023.1 - 0.0 - - 10 - - - -
22/04:00am 14.5 SSW 8 10 1023.1 - 0.0 - - 10 - - - -
22/03:30am 14.8 SSW 8 10 1023.1 - 0.0 - Partly cloudy 10 - - - -

Other Formats:

Comma delimited format used in spreadsheet applications
http://www.bom.gov.au/fwo/IDQ60701/IDQ60701.94578.axf

JavaScript Object Notation format (JSON) in row-major order
http://www.bom.gov.au/fwo/IDQ60701/IDQ60701.94578.json